Time;durP1;ratioP1;P1;durP2;ratioP2;P2;SDS_P1;SDS_P2;PMS_P1;PMS_P2;Temp;Humidity;BMP_temperature;BMP_pressure;BME280_temperature;BME280_humidity;BME280_pressure;Samples;Min_cycle;Max_cycle;Signal;HPM_P1;HPM_P2
2022/07/22 00:00:12;;;;;;;4.28;2.53;;;15.40;1.40;;;16.61;100.00;95778.59;648914;212;31545;-75
2022/07/22 00:02:54;;;;;;;2.72;2.50;;;15.20;1.40;;;16.61;100.00;95777.36;647236;212;31566;-74
2022/07/22 00:05:37;;;;;;;3.22;3.00;;;15.30;1.40;;;16.65;100.00;95773.31;647812;212;31562;-75
2022/07/22 00:08:18;;;;;;;3.28;2.87;;;15.40;1.40;;;16.72;100.00;95767.76;646745;216;31545;-75
2022/07/22 00:11:00;;;;;;;3.33;2.30;;;15.50;1.40;;;16.80;100.00;95766.30;647375;216;31902;-76
2022/07/22 00:13:42;;;;;;;3.25;2.95;;;15.50;1.40;;;16.91;100.00;95763.14;646571;212;31589;-75
2022/07/22 00:16:23;;;;;;;4.43;2.47;;;15.70;1.40;;;16.88;100.00;95758.75;647346;216;31561;-75
2022/07/22 00:19:05;;;;;;;3.20;2.50;;;15.60;1.40;;;16.98;100.00;95756.27;646770;212;32132;-75
2022/07/22 00:21:47;;;;;;;3.40;3.00;;;15.90;1.40;;;17.13;100.00;95756.43;633173;222;31704;-75
2022/07/22 00:24:28;;;;;;;4.00;2.37;;;16.10;1.40;;;17.13;100.00;95754.25;646278;212;32130;-75
2022/07/22 00:27:12;;;;;;;3.10;2.80;;;15.90;1.40;;;17.11;100.00;95754.31;646919;212;31559;-75
2022/07/22 00:30:00;;;;;;;4.03;2.90;;;15.90;1.40;;;17.21;100.00;95751.26;646356;216;32279;-75
2022/07/22 00:32:48;;;;;;;3.00;2.80;;;16.10;1.40;;;17.24;100.00;95747.84;646457;212;31623;-75
2022/07/22 00:35:51;;;;;;;3.65;2.10;;;16.10;1.40;;;17.19;100.00;95743.88;646798;216;31555;-75
2022/07/22 00:38:33;;;;;;;4.22;3.30;;;16.00;1.40;;;17.09;100.00;95743.78;646397;216;31753;-75
2022/07/22 00:41:14;;;;;;;3.50;2.80;;;15.90;1.40;;;17.09;100.00;95746.58;647467;212;31653;-76
2022/07/22 00:44:00;;;;;;;4.62;3.80;;;15.90;1.40;;;17.05;100.00;95745.05;646847;212;31558;-75
2022/07/22 00:46:42;;;;;;;3.67;2.90;;;15.70;1.40;;;17.07;100.00;95738.66;646378;216;31503;-75
2022/07/22 00:49:23;;;;;;;3.30;2.90;;;15.70;1.40;;;17.03;100.00;95737.66;645646;214;32032;-75
2022/07/22 00:52:05;;;;;;;5.70;3.08;;;15.60;1.40;;;16.99;100.00;95746.09;647316;216;31531;-75
2022/07/22 00:54:47;;;;;;;3.92;3.53;;;15.50;1.40;;;16.92;100.00;95748.89;635990;212;31759;-75
2022/07/22 00:57:31;;;;;;;3.35;2.83;;;15.30;1.40;;;16.75;100.00;95742.36;645708;216;31598;-76
2022/07/22 01:00:19;;;;;;;4.40;3.42;;;15.20;1.40;;;16.58;100.00;95738.47;646885;212;31604;-76
2022/07/22 01:03:06;;;;;;;3.47;2.62;;;15.00;1.40;;;16.55;100.00;95737.58;618472;226;31910;-76
2022/07/22 01:05:54;;;;;;;3.25;2.78;;;15.00;1.40;;;16.48;100.00;95735.92;619762;222;31883;-75
2022/07/22 01:08:35;;;;;;;3.42;2.60;;;14.90;1.40;;;16.44;100.00;95736.86;646618;216;32097;-76
2022/07/22 01:11:17;;;;;;;4.47;3.40;;;15.00;1.40;;;16.38;100.00;95736.49;631819;221;32105;-75
2022/07/22 01:14:05;;;;;;;3.35;2.87;;;14.90;1.40;;;16.33;100.00;95733.11;641830;216;31780;-76
2022/07/22 01:16:49;;;;;;;4.47;3.42;;;14.90;1.40;;;16.41;100.00;95736.04;647014;216;31624;-75
2022/07/22 01:19:30;;;;;;;4.87;2.70;;;15.00;1.40;;;16.46;100.00;95728.93;618686;226;31907;-75
2022/07/22 01:22:12;;;;;;;3.20;2.45;;;15.10;1.40;;;16.50;100.00;95727.38;646107;216;31564;-75
2022/07/22 01:24:53;;;;;;;4.10;2.65;;;15.20;1.40;;;16.45;100.00;95729.48;619951;226;32028;-75
2022/07/22 01:27:41;;;;;;;3.50;2.85;;;15.00;1.40;;;16.30;100.00;95734.09;645750;216;31533;-76
2022/07/22 01:30:25;;;;;;;4.95;2.53;;;14.70;1.40;;;16.11;100.00;95734.53;646854;216;31565;-75
2022/07/22 01:35:51;;;;;;;4.40;3.08;;;14.50;1.40;;;15.91;100.00;95736.00;646304;212;32116;-75
2022/07/22 01:38:39;;;;;;;3.78;3.20;;;14.40;1.40;;;15.81;100.00;95737.69;646591;212;32080;-75
2022/07/22 01:41:26;;;;;;;3.17;2.87;;;14.30;1.40;;;15.80;100.00;95737.77;646604;216;31616;-75
2022/07/22 01:44:11;;;;;;;2.60;2.40;;;14.20;1.40;;;15.85;100.00;95734.55;646404;212;31922;-75
2022/07/22 01:46:53;;;;;;;3.67;2.90;;;14.30;1.40;;;15.78;100.00;95731.91;646436;212;31591;-75
2022/07/22 01:49:34;;;;;;;3.00;2.30;;;14.30;1.40;;;15.78;100.00;95728.87;646588;216;31536;-75
2022/07/22 01:52:22;;;;;;;3.17;2.60;;;14.20;1.40;;;15.69;100.00;95729.05;644468;216;31596;-76
2022/07/22 01:55:11;;;;;;;4.53;3.37;;;14.20;1.40;;;15.60;100.00;95728.80;646668;216;31554;-75
2022/07/22 01:57:51;;;;;;;2.90;2.00;;;14.10;1.40;;;15.55;100.00;95729.42;646701;212;31548;-75
2022/07/22 02:00:33;;;;;;;2.53;2.33;;;14.10;1.40;;;15.48;100.00;95728.98;646274;216;31581;-75
2022/07/22 02:03:15;;;;;;;3.53;2.33;;;14.00;1.40;;;15.45;100.00;95731.02;646997;216;31606;-75
2022/07/22 02:05:56;;;;;;;4.07;2.90;;;14.00;1.40;;;15.41;100.00;95732.97;645852;212;31548;-75
2022/07/22 02:08:38;;;;;;;3.17;2.10;;;13.90;1.40;;;15.41;100.00;95727.80;631060;221;32342;-75
2022/07/22 02:11:20;;;;;;;1.90;1.80;;;13.90;1.40;;;15.36;100.00;95725.45;646323;216;31773;-75
2022/07/22 02:14:02;;;;;;;4.25;3.10;;;13.90;1.40;;;15.35;100.00;95725.32;646497;216;31878;-75
2022/07/22 02:20:31;;;;;;;7.78;3.28;;;13.80;1.40;;;15.30;100.00;95723.92;646398;212;31789;-76
2022/07/22 02:23:13;;;;;;;3.10;2.78;;;13.80;1.40;;;15.35;100.00;95721.39;646658;216;31601;-75
2022/07/22 02:28:41;;;;;;;3.03;2.72;;;13.90;1.40;;;15.33;100.00;95723.31;645820;216;33727;-75
2022/07/22 02:31:23;;;;;;;2.80;2.37;;;13.90;1.40;;;15.27;100.00;95720.47;646156;216;31880;-75
2022/07/22 02:35:51;;;;;;;3.55;2.47;;;13.70;1.40;;;15.18;100.00;95720.67;646399;216;31708;-75
2022/07/22 02:38:32;;;;;;;2.50;2.30;;;13.70;1.40;;;15.11;100.00;95720.63;646236;212;31649;-74
2022/07/22 02:41:14;;;;;;;4.10;2.87;;;13.60;1.40;;;15.01;100.00;95723.91;647029;216;31712;-75
2022/07/22 02:43:56;;;;;;;2.20;2.00;;;13.50;1.40;;;14.90;100.00;95722.55;647063;212;31595;-75
2022/07/22 02:46:37;;;;;;;3.80;2.70;;;13.40;1.40;;;14.82;100.00;95726.05;646211;212;31537;-75
2022/07/22 02:49:26;;;;;;;4.15;3.10;;;13.30;1.40;;;14.79;100.00;95725.29;645582;212;31845;-77
2022/07/22 02:52:13;;;;;;;3.70;2.10;;;13.20;1.40;;;14.77;100.00;95727.13;647141;216;31545;-76
2022/07/22 02:55:01;;;;;;;5.00;2.40;;;13.20;1.40;;;14.72;100.00;95727.34;635430;216;32160;-75
2022/07/22 02:57:43;;;;;;;2.37;2.17;;;13.20;1.40;;;14.68;100.00;95730.61;647229;212;31618;-75
2022/07/22 03:00:26;;;;;;;3.62;3.33;;;13.20;1.40;;;14.67;100.00;95725.84;647488;213;32099;-75
2022/07/22 03:03:07;;;;;;;2.92;2.62;;;13.20;1.40;;;14.70;100.00;95731.16;646652;212;31701;-75
2022/07/22 03:05:49;;;;;;;4.32;2.60;;;13.30;1.40;;;14.77;100.00;95730.73;647374;216;31549;-75
2022/07/22 03:08:37;;;;;;;3.17;2.37;;;13.40;1.40;;;14.81;100.00;95725.45;645730;212;32102;-76
2022/07/22 03:11:24;;;;;;;2.50;2.20;;;13.60;1.40;;;14.82;100.00;95727.76;646606;216;31533;-75
2022/07/22 03:14:06;;;;;;;3.40;2.47;;;13.50;1.40;;;14.80;100.00;95724.40;648358;213;31534;-75
2022/07/22 03:16:48;;;;;;;4.45;2.37;;;13.40;1.40;;;14.80;100.00;95724.86;619278;222;31907;-75
2022/07/22 03:19:29;;;;;;;3.65;3.25;;;13.40;1.40;;;14.91;100.00;95721.53;646565;212;32164;-75
2022/07/22 03:22:11;;;;;;;3.00;2.20;;;13.60;1.40;;;14.87;100.00;95719.83;646562;212;31666;-75
2022/07/22 03:24:53;;;;;;;2.58;2.37;;;13.50;1.40;;;14.84;100.00;95713.77;646146;216;31609;-75
2022/07/22 03:27:35;;;;;;;5.18;3.12;;;13.50;1.40;;;14.95;100.00;95716.74;647057;212;31595;-75
2022/07/22 03:30:16;;;;;;;2.90;2.42;;;13.50;1.40;;;14.92;100.00;95724.45;619140;222;31851;-75
2022/07/22 03:32:58;;;;;;;3.15;2.92;;;13.50;1.40;;;14.86;100.00;95725.99;647001;212;31556;-75
2022/07/22 03:35:54;;;;;;;4.03;2.40;;;13.30;1.40;;;14.73;100.00;95732.94;646508;212;32260;-75
2022/07/22 03:38:36;;;;;;;4.55;2.78;;;13.20;1.40;;;14.68;100.00;95735.36;645597;216;32070;-75
2022/07/22 03:41:17;;;;;;;2.58;1.92;;;13.20;1.40;;;14.68;100.00;95736.94;648506;216;31645;-75
2022/07/22 03:43:59;;;;;;;3.45;3.12;;;13.30;1.40;;;14.50;100.00;95736.75;647780;212;31614;-75
2022/07/22 03:46:41;;;;;;;2.75;2.55;;;13.10;1.40;;;14.46;100.00;95733.92;647155;216;31606;-75
2022/07/22 03:49:29;;;;;;;3.08;2.78;;;13.00;1.40;;;14.40;100.00;95736.71;645674;216;32106;-75
2022/07/22 03:52:16;;;;;;;3.83;2.30;;;13.00;1.40;;;14.62;100.00;95737.48;647528;212;31565;-75
2022/07/22 03:54:58;;;;;;;1.98;1.70;;;13.50;1.40;;;14.78;100.00;95728.38;619603;217;31918;-76
2022/07/22 03:57:43;;;;;;;2.70;2.37;;;13.70;1.40;;;14.93;100.00;95725.63;647651;212;42763;-75
2022/07/22 04:00:24;;;;;;;2.70;2.50;;;13.90;1.40;;;15.06;100.00;95724.36;619799;226;32947;-74
2022/07/22 04:03:06;;;;;;;2.62;2.15;;;13.90;1.40;;;15.10;100.00;95726.84;647579;216;31584;-75
2022/07/22 04:05:48;;;;;;;1.77;1.30;;;13.90;1.40;;;15.17;100.00;95724.14;646107;216;31573;-75
2022/07/22 04:08:29;;;;;;;3.50;2.17;;;13.90;1.40;;;15.27;100.00;95723.58;647473;212;31534;-75
2022/07/22 04:11:11;;;;;;;3.17;2.50;;;14.10;1.40;;;15.32;100.00;95719.04;618002;226;31903;-75
2022/07/22 04:13:55;;;;;;;4.05;2.55;;;13.90;1.40;;;15.09;100.00;95720.67;647221;212;31632;-75
2022/07/22 04:16:36;;;;;;;4.50;2.30;;;13.70;1.40;;;15.07;100.00;95722.48;646082;216;31731;-75
2022/07/22 04:19:20;;;;;;;2.00;1.90;;;13.50;1.40;;;14.83;100.00;95724.27;647059;216;31522;-75
2022/07/22 04:22:02;;;;;;;7.25;3.92;;;13.20;1.40;;;14.77;100.00;95721.81;646946;212;31549;-76
2022/07/22 04:24:50;;;;;;;5.78;3.50;;;13.30;1.40;;;14.85;100.00;95725.90;646986;216;31756;-76
2022/07/22 04:27:37;;;;;;;2.30;2.05;;;13.50;1.40;;;14.96;100.00;95718.94;631563;221;31806;-75
2022/07/22 04:30:24;;;;;;;2.60;1.90;;;13.70;1.40;;;15.04;100.00;95718.06;646315;216;31514;-75
2022/07/22 04:35:52;;;;;;;4.82;2.97;;;13.80;1.40;;;15.18;100.00;95717.07;647198;216;31576;-75
2022/07/22 04:38:36;;;;;;;3.50;2.28;;;13.90;1.40;;;15.25;100.00;95717.44;647210;216;31543;-76
2022/07/22 04:41:18;;;;;;;4.40;4.00;;;13.90;1.40;;;15.42;100.00;95722.08;646199;216;31617;-75
2022/07/22 04:44:01;;;;;;;6.65;4.47;;;14.10;1.40;;;15.53;100.00;95717.91;620822;226;32027;-75
2022/07/22 04:46:48;;;;;;;4.18;2.55;;;14.20;1.40;;;15.65;100.00;95714.52;618896;226;31908;-76
2022/07/22 04:49:36;;;;;;;4.32;2.90;;;14.40;1.40;;;15.80;100.00;95711.27;645403;216;35000;-75
2022/07/22 04:52:18;;;;;;;3.15;2.85;;;14.70;1.40;;;15.94;100.00;95715.53;646632;216;31964;-74
2022/07/22 04:54:59;;;;;;;2.97;2.28;;;14.70;1.40;;;16.08;100.00;95716.10;635533;212;32189;-75
2022/07/22 04:57:47;;;;;;;3.42;2.60;;;14.80;1.40;;;16.16;100.00;95719.30;646097;216;31594;-76
2022/07/22 05:00:35;;;;;;;3.35;3.03;;;14.80;1.40;;;16.30;100.00;95715.33;648136;212;31651;-75
2022/07/22 05:03:18;;;;;;;4.57;3.12;;;14.90;1.40;;;16.38;100.00;95712.06;645379;216;31633;-76
2022/07/22 05:06:14;;;;;;;3.87;2.80;;;15.00;1.40;;;16.57;100.00;95710.32;648856;216;31598;-75
2022/07/22 05:08:56;;;;;;;7.32;3.20;;;15.20;1.40;;;16.70;100.00;95714.83;646903;216;31599;-75
2022/07/22 05:11:41;;;;;;;6.75;4.65;;;15.40;1.40;;;16.84;100.00;95713.39;650049;212;31697;-75
2022/07/22 05:14:22;;;;;;;4.40;3.33;;;15.60;1.40;;;16.94;100.00;95718.63;644812;212;31579;-75
2022/07/22 05:17:04;;;;;;;6.50;2.78;;;15.70;1.40;;;17.08;100.00;95714.27;618520;226;31865;-75
2022/07/22 05:19:46;;;;;;;3.72;2.72;;;15.80;1.40;;;17.18;100.00;95715.34;647650;216;31528;-75
2022/07/22 05:22:28;;;;;;;4.53;4.13;;;15.80;1.40;;;17.32;100.00;95711.15;648218;212;31540;-75
2022/07/22 05:25:09;;;;;;;5.43;3.70;;;15.90;1.40;;;17.43;100.00;95714.42;646088;212;31542;-75
2022/07/22 05:27:57;;;;;;;3.80;3.25;;;16.00;1.40;;;17.57;100.00;95710.27;653559;216;31591;-76
2022/07/22 05:30:45;;;;;;;3.20;2.30;;;16.20;1.40;;;17.72;100.00;95712.22;646950;216;31649;-75
2022/07/22 05:35:51;;;;;;;3.50;2.78;;;16.50;1.40;;;17.99;100.00;95716.41;631233;217;32239;-75
2022/07/22 05:41:08;;;;;;;4.87;3.37;;;16.70;1.40;;;18.26;100.00;95715.20;647141;212;31920;-75
2022/07/22 05:43:52;;;;;;;10.25;5.25;;;16.90;1.40;;;18.43;100.00;95715.41;648318;216;31899;-75
2022/07/22 05:46:39;;;;;;;5.22;4.15;;;17.20;1.40;;;18.58;100.00;95711.91;650627;212;31538;-75
2022/07/22 05:49:27;;;;;;;5.10;3.53;;;17.40;1.40;;;18.71;100.00;95712.23;647668;216;31583;-77
2022/07/22 05:52:15;;;;;;;5.32;4.22;;;17.50;1.40;;;18.86;100.00;95716.23;646437;216;31543;-76
2022/07/22 05:57:33;;;;;;;6.18;4.40;;;17.70;1.40;;;19.14;100.00;95710.84;648082;216;32150;-76
2022/07/22 06:00:17;;;;;;;4.55;3.80;;;17.90;1.40;;;19.27;100.00;95715.80;645862;216;31537;-75
2022/07/22 06:03:04;;;;;;;5.53;3.33;;;17.90;1.40;;;19.39;100.00;95707.52;646915;216;31590;-76
2022/07/22 06:05:52;;;;;;;3.97;3.30;;;18.00;1.40;;;19.50;100.00;95707.25;619356;222;31891;-75
2022/07/22 06:08:34;;;;;;;6.07;4.47;;;18.10;1.40;;;19.60;100.00;95713.92;648768;212;31586;-76
2022/07/22 06:11:18;;;;;;;4.03;3.62;;;18.30;1.40;;;19.70;100.00;95713.89;648086;216;32200;-77
2022/07/22 06:14:00;;;;;;;7.90;4.57;;;18.50;1.40;;;19.88;100.00;95716.36;648405;212;31632;-79
2022/07/22 06:16:48;;;;;;;5.10;4.40;;;18.60;1.40;;;19.93;100.00;95720.34;646595;216;31579;-77
2022/07/22 06:19:36;;;;;;;6.20;3.87;;;18.70;1.40;;;20.05;100.00;95714.89;648313;216;42175;-71
2022/07/22 06:22:23;;;;;;;5.87;4.50;;;18.80;1.40;;;20.20;100.00;95718.00;644621;216;31555;-72
2022/07/22 06:25:06;;;;;;;5.80;4.10;;;18.90;1.40;;;20.35;100.00;95717.88;649203;212;31561;-71
2022/07/22 06:27:48;;;;;;;7.10;4.65;;;19.00;1.40;;;20.52;100.00;95718.31;645984;216;42268;-71
2022/07/22 06:30:30;;;;;;;5.37;4.80;;;19.20;1.40;;;20.64;100.00;95721.05;646463;216;31573;-70
2022/07/22 06:35:55;;;;;;;7.30;4.60;;;19.40;1.40;;;20.89;100.00;95715.98;646650;212;31585;-72
2022/07/22 06:38:37;;;;;;;5.62;4.80;;;19.50;1.40;;;21.03;100.00;95716.02;647182;212;31554;-77
2022/07/22 06:41:25;;;;;;;5.30;4.30;;;19.60;1.40;;;21.21;100.00;95716.70;645797;212;31565;-76
2022/07/22 06:44:06;;;;;;;6.32;4.78;;;19.70;1.40;;;21.25;100.00;95713.61;647077;216;32269;-76
2022/07/22 06:46:54;;;;;;;6.62;4.97;;;19.90;1.40;;;21.51;100.00;95713.90;618228;226;31896;-76
2022/07/22 06:49:36;;;;;;;5.97;5.10;;;20.20;1.40;;;21.67;100.00;95719.28;620094;222;32037;-76
2022/07/22 06:52:18;;;;;;;6.95;4.80;;;20.30;1.40;;;21.86;100.00;95715.20;619490;226;31884;-76
2022/07/22 06:55:00;;;;;;;6.23;5.33;;;20.50;1.40;;;22.06;100.00;95718.48;634692;216;31720;-77
2022/07/22 06:57:44;;;;;;;5.62;4.70;;;20.60;1.40;;;22.20;100.00;95720.29;646871;215;31627;-77
2022/07/22 07:00:32;;;;;;;6.20;4.90;;;20.90;1.40;;;22.34;100.00;95721.30;646991;212;31711;-76
2022/07/22 07:03:20;;;;;;;4.85;4.03;;;21.00;1.40;;;22.57;100.00;95720.35;646939;216;32318;-77
2022/07/22 07:06:07;;;;;;;5.70;4.60;;;21.30;1.40;;;22.77;100.00;95724.59;646635;212;31733;-77
2022/07/22 07:08:57;;;;;;;7.37;5.00;;;21.40;1.40;;;22.81;100.00;95722.56;647428;216;31658;-78
2022/07/22 07:11:43;;;;;;;6.50;4.80;;;21.50;1.40;;;22.94;100.00;95721.39;642888;215;31578;-77
2022/07/22 07:14:25;;;;;;;5.40;4.60;;;21.50;1.40;;;23.03;100.00;95720.95;620682;226;31853;-76
2022/07/22 07:17:07;;;;;;;6.62;5.30;;;21.70;1.40;;;23.21;100.00;95714.28;646832;212;31986;-76
2022/07/22 07:19:49;;;;;;;5.85;4.62;;;21.70;1.40;;;23.29;100.00;95710.87;647106;212;31870;-76
2022/07/22 07:22:31;;;;;;;6.73;4.70;;;21.80;1.40;;;23.56;100.00;95712.58;647628;212;31754;-77
2022/07/22 07:25:18;;;;;;;7.75;4.40;;;22.20;1.40;;;23.85;100.00;95710.45;647431;216;31560;-78
2022/07/22 07:28:02;;;;;;;6.87;4.93;;;22.60;1.40;;;24.06;100.00;95702.16;646095;213;31545;-77
2022/07/22 07:30:44;;;;;;;6.68;5.07;;;22.70;1.40;;;24.14;100.00;95705.06;646532;212;31533;-77
2022/07/22 07:35:52;;;;;;;8.05;4.70;;;22.90;1.40;;;24.18;100.00;95705.91;646021;212;32744;-76
2022/07/22 07:38:35;;;;;;;6.22;4.80;;;22.90;1.40;;;24.47;100.00;95708.89;618995;226;31879;-76
2022/07/22 07:41:18;;;;;;;5.95;4.70;;;23.10;1.40;;;24.67;100.00;95708.13;630820;222;42394;-77
2022/07/22 07:43:59;;;;;;;5.82;4.43;;;23.30;1.40;;;24.86;100.00;95708.82;619331;222;42611;-77
2022/07/22 07:46:41;;;;;;;9.52;4.95;;;23.50;1.40;;;24.88;100.00;95705.75;648281;216;31649;-76
2022/07/22 07:49:23;;;;;;;6.00;4.85;;;23.50;1.40;;;24.82;100.00;95703.17;630898;221;42649;-77
2022/07/22 07:52:05;;;;;;;8.57;5.12;;;23.30;1.40;;;24.91;100.00;95703.02;646398;216;31861;-76
2022/07/22 07:54:47;;;;;;;7.37;4.63;;;23.50;1.40;;;25.15;100.00;95700.53;637281;212;31671;-77
2022/07/22 07:57:28;;;;;;;8.63;4.95;;;23.60;1.40;;;25.39;100.00;95698.83;647127;216;31566;-76
2022/07/22 08:00:11;;;;;;;11.50;5.30;;;23.90;1.40;;;25.53;100.00;95692.21;618790;226;42725;-77
2022/07/22 08:02:55;;;;;;;7.97;5.60;;;24.10;1.40;;;25.87;100.00;95692.34;647071;216;31568;-76
2022/07/22 08:05:35;;;;;;;5.80;4.57;;;24.60;1.40;;;26.00;100.00;95689.89;646569;216;31544;-77
2022/07/22 08:08:18;;;;;;;5.70;5.00;;;24.70;1.40;;;25.94;100.00;95691.73;647179;212;31555;-76
2022/07/22 08:10:59;;;;;;;5.82;4.65;;;24.50;1.40;;;26.12;100.00;95691.88;646431;212;31566;-76
2022/07/22 08:13:44;;;;;;;7.57;5.10;;;24.90;1.40;;;26.35;100.00;95684.83;646898;212;32210;-76
2022/07/22 08:16:26;;;;;;;7.62;5.05;;;24.80;1.40;;;26.43;100.00;95688.44;647781;212;31660;-77
2022/07/22 08:19:14;;;;;;;5.72;4.43;;;25.10;1.40;;;26.45;96.56;95686.15;647138;216;31616;-77
2022/07/22 08:22:02;;;;;;;6.57;4.57;;;25.40;1.40;;;26.82;100.00;95681.73;646110;212;31677;-75
2022/07/22 08:24:44;;;;;;;6.07;5.00;;;25.60;1.40;;;27.06;99.44;95689.41;648303;216;31943;-76
2022/07/22 08:27:25;;;;;;;7.22;5.20;;;25.60;1.40;;;27.05;94.42;95684.59;647605;212;32171;-76
2022/07/22 08:30:10;;;;;;;5.25;4.40;;;25.80;1.40;;;27.18;93.95;95683.10;646538;212;32013;-75
2022/07/22 08:32:52;;;;;;;6.07;4.43;;;26.00;1.40;;;27.52;89.97;95683.45;620328;226;32629;-75
2022/07/22 08:35:51;;;;;;;5.93;4.45;;;26.40;1.40;;;27.77;89.87;95675.55;642733;217;33745;-76
2022/07/22 08:38:36;;;;;;;6.60;4.50;;;26.50;1.40;;;28.10;88.08;95675.84;619354;222;32714;-75
2022/07/22 08:41:18;;;;;;;5.30;4.80;;;26.90;1.40;;;27.87;86.28;95670.30;646553;212;31596;-74
2022/07/22 08:44:00;;;;;;;5.57;4.75;;;26.90;1.40;;;27.92;87.53;95668.49;645779;212;31560;-76
2022/07/22 08:46:42;;;;;;;5.97;4.80;;;26.80;1.40;;;28.43;84.55;95658.69;647432;212;31909;-77
2022/07/22 08:49:25;;;;;;;9.30;5.10;;;27.00;1.40;;;28.70;82.07;95655.73;621092;226;42554;-77
2022/07/22 08:52:07;;;;;;;4.82;3.75;;;27.40;1.40;;;28.51;79.17;95654.05;618992;222;33659;-77
2022/07/22 08:54:49;;;;;;;5.27;4.03;;;27.40;1.40;;;28.59;76.37;95653.26;636398;212;31753;-77
2022/07/22 08:57:31;;;;;;;6.25;4.97;;;27.60;1.40;;;28.61;75.41;95648.59;619392;222;32158;-77
2022/07/22 09:00:15;;;;;;;5.68;4.22;;;27.60;1.40;;;28.66;71.34;95651.29;646749;216;31883;-78
2022/07/22 09:02:57;;;;;;;5.03;3.77;;;27.60;1.40;;;28.73;75.29;95644.23;646569;212;32165;-77
2022/07/22 09:05:38;;;;;;;4.35;3.30;;;27.30;1.40;;;28.88;70.64;95638.58;647249;216;31612;-77
2022/07/22 09:08:20;;;;;;;4.80;4.30;;;27.50;1.40;;;29.47;72.62;95638.54;646400;216;31584;-77
2022/07/22 09:11:02;;;;;;;4.55;4.12;;;28.40;1.40;;;29.24;68.03;95640.47;647052;212;31555;-77
2022/07/22 09:13:44;;;;;;;5.20;4.10;;;28.20;1.40;;;29.57;69.79;95637.80;648173;216;31558;-78
2022/07/22 09:16:38;;;;;;;4.95;3.50;;;28.40;1.40;;;29.42;66.97;95637.03;646694;216;32119;-77
2022/07/22 09:19:20;;;;;;;4.57;4.12;;;28.50;1.40;;;30.08;65.40;95636.74;619585;222;32118;-77
2022/07/22 09:22:04;;;;;;;4.55;3.85;;;28.80;1.40;;;30.56;64.80;95633.05;646707;216;31598;-79
2022/07/22 09:24:47;;;;;;;4.72;4.03;;;29.30;1.40;;;30.97;62.31;95630.92;642690;217;31522;-78
2022/07/22 09:27:29;;;;;;;4.30;3.85;;;29.20;1.40;;;30.44;62.37;95628.13;646197;212;31594;-77
2022/07/22 09:30:13;;;;;;;4.40;4.00;;;31.40;1.40;;;31.96;62.61;95622.66;648592;216;31612;-77
2022/07/22 09:32:56;;;;;;;6.57;4.80;;;34.00;1.40;;;34.02;59.15;95612.57;647189;216;31775;-78
2022/07/22 09:35:50;;;;;;;6.93;4.37;;;36.60;1.40;;;35.16;53.86;95610.30;646722;212;31734;-78
2022/07/22 09:38:35;;;;;;;4.50;4.10;;;36.60;1.40;;;36.98;52.48;95607.12;632592;222;31878;-86
2022/07/22 09:41:19;;;;;;;5.72;4.75;;;38.10;1.40;;;37.80;52.51;95604.34;619643;226;31929;-78
2022/07/22 09:44:20;;;;;;;5.28;4.78;;;37.60;1.40;;;36.68;49.79;95606.05;646846;216;31578;-77
2022/07/22 09:47:02;;;;;;;4.80;4.40;;;37.10;1.40;;;37.80;49.69;95598.06;646816;216;31577;-78
2022/07/22 09:49:44;;;;;;;4.97;4.47;;;37.80;1.40;;;40.01;45.80;95591.59;619833;226;31911;-78
2022/07/22 09:52:26;;;;;;;5.47;4.97;;;38.30;1.40;;;38.40;41.84;95587.50;647713;216;31681;-78
2022/07/22 09:55:09;;;;;;;5.68;5.18;;;37.10;99.90;;;38.50;40.58;95585.95;610490;222;32220;-79
2022/07/22 09:57:53;;;;;;;4.20;3.90;;;36.50;99.90;;;38.16;42.05;95583.77;616656;226;32179;-78
2022/07/22 10:00:35;;;;;;;4.65;4.18;;;37.00;1.40;;;39.71;46.50;95582.80;648449;216;31663;-78
2022/07/22 10:03:26;;;;;;;5.50;4.70;;;38.00;99.90;;;37.12;40.86;95592.49;647333;212;31577;-78
2022/07/22 10:06:09;;;;;;;5.25;4.72;;;35.40;1.40;;;37.96;42.99;95573.57;647730;216;42188;-78
2022/07/22 10:08:50;;;;;;;5.47;5.03;;;35.70;99.90;;;38.61;43.73;95572.59;632098;221;31716;-78
2022/07/22 10:11:35;;;;;;;5.03;4.63;;;36.90;99.90;;;38.36;44.77;95571.39;648795;212;31564;-80
2022/07/22 10:14:16;;;;;;;5.20;4.70;;;36.80;99.90;;;40.76;39.47;95567.86;648542;212;31996;-79
2022/07/22 10:16:58;;;;;;;4.90;4.50;;;37.40;99.90;;;37.91;40.82;95570.89;648039;212;31569;-78
2022/07/22 10:19:40;;;;;;;5.40;4.80;;;36.10;99.90;;;39.58;38.38;95566.48;649213;212;31662;-79
2022/07/22 10:22:50;;;;;;;5.60;5.20;;;37.80;99.90;;;39.80;40.77;95559.59;617581;225;31936;-79
2022/07/22 10:25:31;;;;;;;5.40;4.90;;;38.00;20.00;;;40.89;35.80;95555.63;620034;226;32057;-80
2022/07/22 10:28:13;;;;;;;5.40;4.73;;;37.60;99.90;;;40.54;36.48;95557.06;621159;226;31917;-80
2022/07/22 10:30:55;;;;;;;5.70;4.43;;;37.10;99.90;;;41.47;36.05;95561.17;648743;212;31772;-78
2022/07/22 10:35:54;;;;;;;4.68;4.28;;;38.40;99.90;;;41.49;37.86;95547.21;649398;216;31589;-79
2022/07/22 10:38:35;;;;;;;4.83;4.43;;;38.10;99.90;;;37.34;38.00;95549.54;648041;212;31568;-79
2022/07/22 10:41:17;;;;;;;5.33;4.93;;;35.00;99.90;;;38.01;40.39;95543.47;648242;212;31572;-78
2022/07/22 10:43:59;;;;;;;5.47;5.07;;;36.00;99.90;;;34.10;42.51;95559.53;648096;216;42195;-78
2022/07/22 10:46:54;;;;;;;5.70;4.53;;;33.30;99.90;;;36.97;41.11;95548.09;648231;216;32124;-78
2022/07/22 10:49:36;;;;;;;6.45;4.50;;;36.10;99.90;;;40.90;36.85;95540.20;649117;216;32592;-79
2022/07/22 10:52:20;;;;;;;5.30;4.80;;;38.10;99.90;;;42.45;35.28;95532.78;621186;222;32659;-78
2022/07/22 10:55:16;;;;;;;5.25;4.85;;;38.80;99.90;;;42.27;33.17;95533.84;636595;212;31909;-78
2022/07/22 10:57:58;;;;;;;5.00;4.50;;;38.20;99.90;;;42.58;33.90;95530.23;620074;222;34157;-79
2022/07/22 11:00:46;;;;;;;5.77;5.10;;;38.20;99.90;;;41.48;33.48;95536.05;647062;216;32044;-78
2022/07/22 11:03:30;;;;;;;4.85;4.45;;;37.10;99.90;;;41.42;34.40;95536.23;620794;222;31927;-78
2022/07/22 11:06:24;;;;;;;5.10;4.70;;;37.60;99.90;;;42.56;33.08;95533.09;648635;216;42195;-79
2022/07/22 11:09:06;;;;;;;5.05;4.30;;;38.10;99.90;;;42.44;34.63;95522.42;648928;216;31557;-79
2022/07/22 11:11:56;;;;;;;5.40;5.00;;;38.40;99.90;;;43.47;32.35;95517.85;648592;212;31566;-79
2022/07/22 11:14:37;;;;;;;4.90;4.50;;;38.00;99.90;;;43.76;31.86;95518.75;647603;216;31602;-79
2022/07/22 11:17:23;;;;;;;5.10;4.70;;;38.00;99.90;;;40.49;34.14;95528.11;647746;212;32159;-78
2022/07/22 11:20:01;;;;;;;5.77;5.27;;;36.50;99.90;;;43.15;32.20;95513.72;632770;222;31761;-78
2022/07/22 11:22:43;;;;;;;5.73;5.00;;;37.90;99.90;;;43.88;32.44;95511.31;648486;216;31598;-78
2022/07/22 11:25:25;;;;;;;5.20;4.70;;;38.40;99.90;;;44.40;31.49;95509.45;648378;212;31578;-81
2022/07/22 11:28:07;;;;;;;4.70;4.30;;;38.40;99.90;;;43.24;32.20;95513.98;646861;212;32162;-78
2022/07/22 11:30:49;;;;;;;5.57;4.78;;;38.30;99.90;;;43.96;30.97;95507.81;647496;216;31556;-79
2022/07/22 11:36:04;;;;;;;5.55;5.15;;;38.60;99.90;;;44.84;30.17;95506.03;646524;212;32149;-78
2022/07/22 11:38:52;;;;;;;4.90;4.50;;;37.70;99.90;;;42.87;31.22;95497.20;649047;216;31575;-79
2022/07/22 11:41:34;;;;;;;4.37;4.07;;;37.50;99.90;;;42.76;31.38;95493.82;620644;226;31919;-79
2022/07/22 11:44:25;;;;;;;5.07;4.57;;;37.00;99.90;;;41.18;33.61;95497.17;619667;222;32722;-78
2022/07/22 11:47:07;;;;;;;5.10;4.60;;;35.10;99.90;;;40.04;34.54;95491.61;646525;216;31662;-77
2022/07/22 11:49:48;;;;;;;5.20;4.70;;;34.60;99.90;;;39.67;36.42;95487.92;646668;216;31591;-77
2022/07/22 11:52:30;;;;;;;5.40;4.90;;;35.10;99.90;;;39.19;35.97;95487.09;646061;216;31595;-77
2022/07/22 11:55:15;;;;;;;5.87;4.90;;;35.10;99.90;;;38.62;37.50;95476.73;632184;222;32335;-77
2022/07/22 11:57:57;;;;;;;4.93;4.47;;;35.10;99.90;;;38.93;35.92;95484.19;646567;216;31753;-76
2022/07/22 12:00:42;;;;;;;7.10;4.60;;;35.10;99.90;;;39.01;37.87;95475.95;647452;212;31679;-76